Time;durP1;ratioP1;P1;durP2;ratioP2;P2;SDS_P1;SDS_P2;PMS_P1;PMS_P2;Temp;Humidity;BMP_temperature;BMP_pressure;BME280_temperature;BME280_humidity;BME280_pressure;Samples;Min_cycle;Max_cycle;Signal;HPM_P1;HPM_P2
2022/09/24 00:02:04;;;;;;;38.40;29.70;;;;;;;10.21;64.96;100496.83;108645;1279;21987;-83
2022/09/24 00:04:49;;;;;;;45.00;32.40;;;;;;;10.19;65.06;100500.72;108421;1279;22046;-81
2022/09/24 00:07:41;;;;;;;42.50;31.70;;;;;;;10.17;65.27;100497.80;108340;1282;22318;-81
2022/09/24 00:10:27;;;;;;;36.60;29.10;;;;;;;10.20;65.10;100491.45;108128;1282;22017;-81
2022/09/24 00:13:05;;;;;;;36.10;28.00;;;;;;;10.20;65.03;100490.42;108123;1282;22010;-82
2022/09/24 00:15:47;;;;;;;36.80;27.50;;;;;;;10.18;64.97;100487.88;108317;1282;21996;-83
2022/09/24 00:18:43;;;;;;;32.80;26.40;;;;;;;10.18;64.84;100485.95;108307;1279;23796;-81
2022/09/24 00:22:05;;;;;;;33.40;25.50;;;;;;;10.20;64.92;100479.98;108427;1279;22772;-82
2022/09/24 00:27:36;;;;;;;31.20;25.30;;;;;;;10.29;64.91;100474.11;108950;1273;22228;-80
2022/09/24 00:30:13;;;;;;;32.30;23.70;;;;;;;10.33;64.92;100469.10;108726;1273;22006;-82
2022/09/24 00:33:21;;;;;;;34.40;23.60;;;;;;;10.34;64.70;100460.21;108762;1273;22278;-83
2022/09/24 00:35:57;;;;;;;29.50;22.30;;;;;;;10.36;64.65;100456.16;108685;1276;22507;-81
2022/09/24 00:38:34;;;;;;;38.50;24.80;;;;;;;10.35;64.55;100454.27;108578;1276;21985;-81
2022/09/24 00:41:08;;;;;;;30.60;23.60;;;;;;;10.33;64.46;100450.66;108403;1276;22128;-80
2022/09/24 00:43:52;;;;;;;33.20;26.70;;;;;;;10.30;64.46;100453.39;108646;1276;21963;-81
2022/09/24 00:46:43;;;;;;;34.00;26.30;;;;;;;10.26;64.63;100453.00;108629;1276;21969;-81
2022/09/24 00:49:33;;;;;;;31.80;23.80;;;;;;;10.25;64.78;100446.93;108578;1276;21995;-81
2022/09/24 00:52:07;;;;;;;34.20;24.60;;;;;;;10.31;64.82;100449.70;108560;1276;22050;-82
2022/09/24 00:54:44;;;;;;;30.00;24.90;;;;;;;10.39;64.81;100451.01;108414;1276;22076;-81
2022/09/24 00:57:21;;;;;;;33.20;24.70;;;;;;;10.42;64.68;100446.37;108504;1277;22016;-82
2022/09/24 01:00:07;;;;;;;29.10;24.00;;;;;;;10.40;64.62;100444.38;108424;1273;23069;-82
2022/09/24 01:03:27;;;;;;;;;;;;;;;;;;;;;
2022/09/24 01:06:10;;;;;;;34.70;23.40;;;;;;;10.32;64.71;100440.98;108988;1273;22920;-83
2022/09/24 01:09:17;;;;;;;31.80;23.60;;;;;;;10.30;64.65;100438.07;108760;1273;23615;-81
2022/09/24 01:12:40;;;;;;;27.00;21.60;;;;;;;10.33;64.66;100437.63;108578;1275;21987;-81
2022/09/24 01:15:37;;;;;;;33.40;23.10;;;;;;;10.29;64.74;100437.59;108642;1275;22039;-79
2022/09/24 01:18:14;;;;;;;31.20;24.30;;;;;;;10.29;64.83;100433.23;108466;1273;21997;-79
2022/09/24 01:21:27;;;;;;;30.30;24.20;;;;;;;10.32;64.64;100430.54;108490;1275;23079;-79
2022/09/24 01:24:04;;;;;;;31.70;24.00;;;;;;;10.32;64.69;100428.46;108013;1280;22036;-79
2022/09/24 01:27:07;;;;;;;31.70;23.60;;;;;;;10.32;64.74;100427.56;108100;1280;22009;-82
2022/09/24 01:30:04;;;;;;;35.70;24.10;;;;;;;10.32;64.94;100423.59;108345;1280;23699;-81
2022/09/24 01:32:57;;;;;;;30.70;23.80;;;;;;;10.37;65.15;100422.70;108367;1279;23608;-82
2022/09/24 01:35:56;;;;;;;30.00;23.80;;;;;;;10.44;65.09;100424.02;108168;1280;23065;-81
2022/09/24 01:38:58;;;;;;;;;;;;;;;;;;;;;
2022/09/24 01:41:53;;;;;;;;;;;;;;;;;;;;;
2022/09/24 01:44:49;;;;;;;;;;;;;;;10.37;64.93;100412.77;108327;1281;23054;-81
2022/09/24 01:47:48;;;;;;;24.50;19.40;;;;;;;10.25;65.24;100407.98;108265;1280;21992;-81
2022/09/24 01:50:28;;;;;;;24.10;18.90;;;;;;;10.20;65.32;100406.42;108689;1273;22314;-82
2022/09/24 01:53:30;;;;;;;24.00;19.40;;;;;;;10.19;65.33;100403.67;108579;1273;24409;-81
2022/09/24 01:56:14;;;;;;;25.20;19.00;;;;;;;10.19;65.27;100401.05;108497;1273;22552;-82
2022/09/24 01:59:56;;;;;;;24.00;19.90;;;;;;;10.20;65.24;100398.95;108618;1273;22939;-81
2022/09/24 02:02:59;;;;;;;24.10;19.50;;;;;;;10.19;65.27;100398.46;108692;1273;22049;-81
2022/09/24 02:06:14;;;;;;;24.50;19.10;;;;;;;10.17;65.37;100395.20;108683;1273;22967;-81
2022/09/24 02:08:47;;;;;;;26.30;17.70;;;;;;;10.18;65.36;100393.27;108652;1273;21991;-81
2022/09/24 02:11:23;;;;;;;24.50;19.10;;;;;;;10.22;65.40;100389.64;108529;1273;21995;-81
2022/09/24 02:14:07;;;;;;;21.50;17.50;;;;;;;10.26;65.27;100392.10;108517;1273;21987;-80
2022/09/24 02:16:46;;;;;;;21.20;17.10;;;;;;;10.27;65.32;100386.34;108676;1273;21988;-81
2022/09/24 02:19:31;;;;;;;21.90;18.00;;;;;;;10.29;65.31;100390.81;108581;1275;23083;-80
2022/09/24 02:22:21;;;;;;;21.50;17.90;;;;;;;10.32;65.60;100388.10;108317;1278;22140;-81
2022/09/24 02:25:04;;;;;;;19.80;17.60;;;;;;;10.39;65.55;100389.44;108135;1280;21996;-81
2022/09/24 02:28:05;;;;;;;20.10;16.80;;;;;;;10.42;65.52;100389.83;107852;1284;23102;-80
2022/09/24 02:31:31;;;;;;;;;;;;;;;;;;;;;
2022/09/24 02:34:23;;;;;;;23.40;18.30;;;;;;;10.44;65.16;100384.52;107914;1284;22001;-81
2022/09/24 02:37:13;;;;;;;24.00;18.60;;;;;;;10.43;65.13;100379.36;108060;1284;23877;-80
2022/09/24 02:39:53;;;;;;;28.10;16.00;;;;;;;10.43;65.34;100381.10;108100;1281;23204;-81
2022/09/24 02:42:40;;;;;;;;;;;;;;;;;;;;;
2022/09/24 02:45:20;;;;;;;19.90;16.30;;;;;;;10.42;65.37;100380.27;108335;1280;22696;-82
2022/09/24 02:48:06;;;;;;;22.50;16.10;;;;;;;10.43;65.40;100379.16;108276;1280;22012;-82
2022/09/24 02:51:07;;;;;;;23.30;16.90;;;;;;;10.45;65.48;100378.23;108297;1281;22145;-80
2022/09/24 02:54:00;;;;;;;19.30;16.00;;;;;;;10.46;65.46;100379.39;108723;1273;22011;-81
2022/09/24 02:56:32;;;;;;;20.00;16.00;;;;;;;10.50;65.61;100382.57;108548;1273;21992;-81
2022/09/24 02:59:07;;;;;;;22.10;16.80;;;;;;;10.51;65.39;100380.60;108682;1273;23070;-81
2022/09/24 03:01:44;;;;;;;20.60;15.30;;;;;;;10.55;65.42;100378.58;108603;1275;22725;-82
2022/09/24 03:04:21;;;;;;;20.20;15.70;;;;;;;10.55;65.43;100373.35;108638;1273;23056;-82
2022/09/24 03:07:00;;;;;;;;;;;;;;;;;;;;;
2022/09/24 03:09:42;;;;;;;19.70;15.60;;;;;;;10.39;65.57;100374.11;108741;1273;22324;-83
2022/09/24 03:12:23;;;;;;;19.20;14.70;;;;;;;10.36;65.59;100372.12;108722;1273;21999;-83
2022/09/24 03:15:17;;;;;;;18.40;14.10;;;;;;;10.36;65.59;100369.34;108602;1275;22448;-82
2022/09/24 03:18:21;;;;;;;19.50;15.00;;;;;;;10.35;65.61;100361.90;108661;1275;21986;-82
2022/09/24 03:21:09;;;;;;;21.20;16.10;;;;;;;10.36;65.57;100357.87;108586;1273;24377;-83
2022/09/24 03:23:52;;;;;;;18.60;15.80;;;;;;;10.36;65.66;100353.16;108689;1273;21987;-84
2022/09/24 03:26:34;;;;;;;25.50;17.30;;;;;;;10.37;65.73;100350.51;108470;1273;21998;-82
2022/09/24 03:30:58;;;;;;;20.90;16.00;;;;;;;10.40;65.81;100350.94;108664;1273;23068;-83
2022/09/24 03:32:40;;;;;;;20.60;17.00;;;;;;;10.41;65.75;100351.44;108491;1276;23860;-83
2022/09/24 03:35:20;;;;;;;19.80;16.30;;;;;;;10.43;65.76;100348.89;108453;1276;22972;-84
2022/09/24 03:38:08;;;;;;;20.30;16.70;;;;;;;10.46;65.79;100348.27;108441;1278;22068;-83
2022/09/24 03:40:46;;;;;;;17.80;14.20;;;;;;;10.47;65.77;100347.88;108584;1279;22029;-82
2022/09/24 03:43:54;;;;;;;18.20;15.00;;;;;;;10.47;65.61;100346.85;108466;1279;23167;-82
2022/09/24 03:46:27;;;;;;;20.50;14.30;;;;;;;10.47;65.58;100344.92;108523;1279;24058;-81
2022/09/24 03:49:22;;;;;;;19.40;14.90;;;;;;;10.45;65.58;100345.02;108397;1276;22034;-81
2022/09/24 03:52:18;;;;;;;;;;;;;;;;;;;;;
2022/09/24 03:54:54;;;;;;;16.80;15.00;;;;;;;10.44;65.59;100353.05;108367;1278;22476;-84
2022/09/24 03:57:44;;;;;;;19.50;14.40;;;;;;;10.47;65.84;100352.95;108037;1281;23705;-81
2022/09/24 04:00:14;;;;;;;19.80;15.30;;;;;;;10.50;65.75;100351.63;107890;1286;22012;-82
2022/09/24 04:03:13;;;;;;;28.30;21.50;;;;;;;10.49;65.67;100351.64;108070;1284;23046;-81
2022/09/24 04:06:03;;;;;;;32.20;27.90;;;;;;;10.47;65.52;100345.44;108030;1284;22004;-83
2022/09/24 04:08:42;;;;;;;36.60;32.60;;;;;;;10.46;65.62;100345.34;108030;1285;22023;-82
2022/09/24 04:11:24;;;;;;;38.20;31.60;;;;;;;10.42;65.72;100345.65;108065;1284;22466;-83
2022/09/24 04:14:01;;;;;;;31.80;26.90;;;;;;;10.42;65.86;100340.08;108332;1279;22534;-81
2022/09/24 04:16:35;;;;;;;35.90;26.60;;;;;;;10.41;65.72;100334.88;108324;1281;23211;-82
2022/09/24 04:19:15;;;;;;;25.30;22.50;;;;;;;10.41;65.83;100339.25;108573;1275;22006;-82
2022/09/24 04:21:50;;;;;;;27.10;23.20;;;;;;;10.38;65.73;100338.83;108609;1275;23626;-83
2022/09/24 04:24:21;;;;;;;32.40;23.00;;;;;;;10.36;65.85;100338.52;108651;1275;21985;-83
2022/09/24 04:27:08;;;;;;;25.30;22.70;;;;;;;10.34;65.88;100338.80;108551;1279;22734;-84
2022/09/24 04:29:43;;;;;;;31.50;23.60;;;;;;;10.35;65.97;100337.05;107906;1284;23788;-84
2022/09/24 04:32:16;;;;;;;26.20;23.20;;;;;;;10.37;66.04;100335.03;107838;1284;22072;-83
2022/09/24 04:35:09;;;;;;;23.70;21.20;;;;;;;10.34;65.92;100332.71;107833;1285;21987;-82
2022/09/24 04:38:13;;;;;;;25.00;21.90;;;;;;;10.27;65.92;100328.77;107761;1287;23632;-82
2022/09/24 04:41:33;;;;;;;22.80;20.40;;;;;;;10.23;66.16;100325.09;107792;1284;22450;-82
2022/09/24 04:44:07;;;;;;;24.80;22.20;;;;;;;10.21;66.17;100324.11;107875;1284;22017;-82
2022/09/24 04:47:10;;;;;;;;;;;;;;;;;;;;;
2022/09/24 04:50:02;;;;;;;25.80;20.70;;;;;;;10.19;66.19;100326.29;108479;1280;21995;-84
2022/09/24 04:52:57;;;;;;;22.60;20.30;;;;;;;10.18;66.36;100323.70;108418;1279;23112;-83
2022/09/24 04:55:38;;;;;;;24.80;19.20;;;;;;;10.20;66.34;100320.48;108070;1282;22059;-83
2022/09/24 04:58:21;;;;;;;20.40;17.80;;;;;;;10.20;66.20;100318.07;108188;1282;21998;-83
2022/09/24 05:00:55;;;;;;;20.80;18.20;;;;;;;10.18;66.16;100315.69;108057;1282;22001;-83
2022/09/24 05:03:32;;;;;;;20.90;18.50;;;;;;;10.17;66.19;100316.09;108118;1282;23742;-83
2022/09/24 05:06:04;;;;;;;20.30;17.60;;;;;;;10.17;66.21;100310.69;108112;1282;23498;-83
2022/09/24 05:08:45;;;;;;;28.50;23.30;;;;;;;10.16;66.07;100316.13;108282;1279;23758;-86
2022/09/24 05:11:23;;;;;;;27.40;24.40;;;;;;;10.15;66.08;100314.05;108437;1279;21995;-85
2022/09/24 05:14:02;;;;;;;23.60;21.30;;;;;;;10.18;66.26;100310.66;108569;1275;22089;-85
2022/09/24 05:16:39;;;;;;;22.90;20.60;;;;;;;10.19;66.05;100313.22;108567;1273;23072;-83
2022/09/24 05:19:14;;;;;;;22.40;20.10;;;;;;;10.21;66.12;100316.47;108765;1272;21990;-84
2022/09/24 05:21:54;;;;;;;21.20;19.00;;;;;;;10.24;66.12;100312.69;108820;1276;21988;-84
2022/09/24 05:24:45;;;;;;;21.00;18.80;;;;;;;10.29;65.98;100307.30;108720;1273;23095;-82
2022/09/24 05:27:20;;;;;;;20.90;17.90;;;;;;;10.27;66.04;100309.97;108721;1273;22012;-83
2022/09/24 05:30:00;;;;;;;21.40;17.90;;;;;;;10.29;66.10;100307.48;108640;1276;23065;-84
2022/09/24 05:32:50;;;;;;;17.80;15.90;;;;;;;10.33;66.10;100307.86;108687;1274;22016;-82
2022/09/24 05:35:39;;;;;;;22.20;17.50;;;;;;;10.35;65.94;100304.50;108532;1273;21986;-80
2022/09/24 05:38:18;;;;;;;18.30;15.00;;;;;;;10.35;65.91;100301.55;108346;1279;23497;-82
2022/09/24 05:40:59;;;;;;;18.60;16.70;;;;;;;10.35;65.89;100303.79;108385;1279;22554;-81
2022/09/24 05:43:36;;;;;;;18.40;16.40;;;;;;;10.40;65.83;100304.16;108375;1279;22000;-81
2022/09/24 05:46:29;;;;;;;20.30;15.40;;;;;;;10.44;66.02;100307.30;108375;1279;23857;-85
2022/09/24 05:49:01;;;;;;;18.20;15.00;;;;;;;10.50;65.97;100308.99;108363;1279;22018;-80
2022/09/24 05:51:37;;;;;;;17.20;14.80;;;;;;;10.58;65.84;100306.77;108505;1279;22007;-80
2022/09/24 05:54:12;;;;;;;19.90;17.90;;;;;;;10.64;65.57;100309.67;108404;1279;22000;-79
2022/09/24 05:56:53;;;;;;;16.10;14.40;;;;;;;10.65;65.36;100316.23;108528;1273;23626;-80
2022/09/24 05:59:32;;;;;;;17.50;14.20;;;;;;;10.61;65.00;100313.23;108049;1280;23795;-80
2022/09/24 06:02:49;;;;;;;;;;;;;;;;;;;;;
2022/09/24 06:05:47;;;;;;;16.70;12.40;;;;;;;10.48;65.23;100319.12;108357;1279;22012;-80
2022/09/24 06:08:30;;;;;;;13.10;11.70;;;;;;;10.54;65.05;100318.04;108334;1279;22099;-80
2022/09/24 06:11:07;;;;;;;13.80;12.10;;;;;;;10.51;64.84;100320.08;108353;1279;21994;-81
2022/09/24 06:13:44;;;;;;;16.60;13.40;;;;;;;10.48;64.83;100317.23;107804;1285;22217;-81
2022/09/24 06:16:42;;;;;;;16.00;14.00;;;;;;;10.46;64.90;100317.50;108039;1284;23893;-81
2022/09/24 06:19:13;;;;;;;15.60;13.60;;;;;;;10.48;65.05;100322.11;107919;1284;21998;-80
2022/09/24 06:21:46;;;;;;;15.30;12.90;;;;;;;10.50;64.90;100320.27;107894;1286;22011;-81
2022/09/24 06:24:22;;;;;;;17.90;14.70;;;;;;;10.52;64.91;100319.19;108100;1283;22011;-80
2022/09/24 06:26:51;;;;;;;35.40;30.20;;;;;;;10.55;64.98;100316.44;108022;1282;21996;-78
2022/09/24 06:29:27;;;;;;;48.30;43.10;;;;;;;10.65;65.22;100320.23;108114;1281;21994;-80
2022/09/24 06:32:00;;;;;;;23.80;21.20;;;;;;;10.70;64.81;100318.30;108039;1282;21999;-80
2022/09/24 06:34:34;;;;;;;23.70;20.90;;;;;;;10.71;64.70;100319.11;108314;1280;22005;-80
2022/09/24 06:37:07;;;;;;;17.50;15.50;;;;;;;10.71;64.51;100322.95;107939;1287;22035;-81
2022/09/24 06:39:46;;;;;;;24.60;18.10;;;;;;;10.70;64.42;100321.42;107804;1287;23111;-79
2022/09/24 06:42:17;;;;;;;23.10;20.50;;;;;;;10.72;64.63;100319.09;107610;1287;22020;-80
2022/09/24 06:44:53;;;;;;;19.80;14.10;;;;;;;10.80;64.58;100325.75;107902;1287;23651;-80
2022/09/24 06:47:23;;;;;;;14.80;13.20;;;;;;;10.82;64.49;100325.84;107682;1287;22061;-80
2022/09/24 06:49:52;;;;;;;18.70;12.80;;;;;;;10.84;64.32;100326.45;107912;1282;22944;-80
2022/09/24 06:52:24;;;;;;;13.80;12.10;;;;;;;10.85;64.21;100323.30;108044;1282;22013;-78
2022/09/24 06:54:58;;;;;;;16.50;12.20;;;;;;;10.90;64.36;100327.28;107684;1283;22021;-78
2022/09/24 06:57:41;;;;;;;19.40;16.90;;;;;;;10.93;64.40;100327.86;107896;1284;23625;-79
2022/09/24 07:00:15;;;;;;;16.10;14.40;;;;;;;11.00;64.41;100324.80;108064;1283;22837;-81
2022/09/24 07:02:53;;;;;;;16.60;14.20;;;;;;;11.07;64.26;100328.02;108090;1283;22019;-82
2022/09/24 07:05:23;;;;;;;17.00;14.20;;;;;;;11.10;64.08;100330.66;108054;1280;23699;-82
2022/09/24 07:07:53;;;;;;;18.30;14.00;;;;;;;11.13;63.89;100324.41;108188;1283;23152;-81
2022/09/24 07:10:24;;;;;;;15.20;13.60;;;;;;;11.16;63.85;100326.59;108203;1284;22015;-81
2022/09/24 07:13:00;;;;;;;12.50;11.40;;;;;;;11.18;63.71;100329.30;108266;1285;22014;-81
2022/09/24 07:15:30;;;;;;;15.80;13.80;;;;;;;11.18;63.56;100326.51;107980;1283;22006;-80
2022/09/24 07:18:04;;;;;;;14.00;12.40;;;;;;;11.20;63.60;100328.02;107865;1286;23081;-80
2022/09/24 07:20:39;;;;;;;16.30;11.90;;;;;;;11.22;63.57;100328.95;108237;1279;23876;-82
2022/09/24 07:23:13;;;;;;;15.60;12.20;;;;;;;11.29;63.52;100334.95;108015;1279;22016;-81
2022/09/24 07:25:45;;;;;;;16.70;11.50;;;;;;;11.35;63.50;100333.81;107850;1282;22000;-82
2022/09/24 07:28:18;;;;;;;13.90;12.00;;;;;;;11.42;63.56;100334.77;108089;1283;22819;-83
2022/09/24 07:31:06;;;;;;;21.50;14.30;;;;;;;11.44;63.31;100335.54;108079;1283;23729;-82
2022/09/24 07:33:40;;;;;;;12.30;11.00;;;;;;;11.49;63.29;100331.67;108289;1282;22088;-83
2022/09/24 07:36:15;;;;;;;17.00;13.70;;;;;;;11.58;63.19;100329.91;108289;1283;23600;-82
2022/09/24 07:39:11;;;;;;;12.90;10.90;;;;;;;11.70;63.20;100333.95;108302;1283;21999;-83
2022/09/24 07:41:47;;;;;;;16.10;11.10;;;;;;;11.81;62.88;100336.08;108040;1283;22739;-87
2022/09/24 07:44:24;;;;;;;12.50;10.50;;;;;;;11.95;62.78;100339.17;108435;1276;21992;-77
2022/09/24 07:46:54;;;;;;;17.10;12.70;;;;;;;12.13;62.53;100339.98;108419;1276;22004;-78
2022/09/24 07:49:23;;;;;;;15.00;12.40;;;;;;;12.24;62.11;100338.20;108598;1276;22006;-77
2022/09/24 07:51:53;;;;;;;14.80;12.20;;;;;;;12.34;61.89;100339.69;108319;1279;23634;-77
2022/09/24 07:54:22;;;;;;;17.00;12.00;;;;;;;12.46;61.54;100342.48;108355;1279;23865;-78
2022/09/24 07:56:57;;;;;;;14.40;11.80;;;;;;;12.56;61.00;100341.65;108440;1280;23676;-84
2022/09/24 07:59:50;;;;;;;13.60;12.10;;;;;;;12.57;60.42;100341.81;108458;1279;23632;-82
2022/09/24 08:02:20;;;;;;;14.30;11.60;;;;;;;12.56;60.37;100339.23;108270;1280;22088;-82
2022/09/24 08:04:55;;;;;;;13.30;11.40;;;;;;;12.66;60.32;100341.21;107926;1286;22364;-82
2022/09/24 08:07:29;;;;;;;13.20;11.10;;;;;;;12.75;59.54;100340.79;107793;1286;22001;-82
2022/09/24 08:10:12;;;;;;;13.30;10.40;;;;;;;12.87;59.19;100343.05;108080;1280;21984;-82
2022/09/24 08:13:05;;;;;;;14.60;12.20;;;;;;;12.97;58.97;100347.77;108391;1282;22465;-82
2022/09/24 08:15:38;;;;;;;14.40;10.50;;;;;;;13.09;58.66;100343.73;108317;1280;22080;-82
2022/09/24 08:18:22;;;;;;;16.10;13.80;;;;;;;13.16;58.15;100348.80;108125;1283;23148;-84
2022/09/24 08:21:09;;;;;;;15.00;10.80;;;;;;;13.20;57.62;100346.88;108280;1282;22019;-82
2022/09/24 08:23:51;;;;;;;14.50;11.10;;;;;;;13.19;57.49;100345.86;108511;1276;22657;-84
2022/09/24 08:26:25;;;;;;;17.90;11.00;;;;;;;13.21;56.99;100344.00;108782;1273;22009;-85
2022/09/24 08:29:13;;;;;;;11.40;10.20;;;;;;;13.17;56.63;100344.02;108465;1280;23810;-85
2022/09/24 08:31:51;;;;;;;11.30;10.20;;;;;;;13.18;56.63;100346.23;108180;1286;23750;-83
2022/09/24 08:34:47;;;;;;;12.10;10.50;;;;;;;13.17;56.49;100348.76;107938;1283;22021;-83
2022/09/24 08:37:25;;;;;;;13.60;10.40;;;;;;;13.18;56.45;100347.80;108077;1283;22026;-83
2022/09/24 08:39:58;;;;;;;11.60;10.40;;;;;;;13.25;56.47;100348.71;108024;1286;22095;-87
2022/09/24 08:43:08;;;;;;;10.80;9.50;;;;;;;13.31;56.53;100354.37;107957;1285;22021;-81
2022/09/24 08:48:52;;;;;;;14.60;9.90;;;;;;;13.27;55.67;100357.37;108455;1279;21995;-81
2022/09/24 08:51:23;;;;;;;10.80;9.60;;;;;;;13.26;56.03;100358.96;108755;1274;22222;-79
2022/09/24 08:54:10;;;;;;;15.20;10.30;;;;;;;13.35;56.41;100360.63;108675;1276;24009;-79
2022/09/24 08:56:44;;;;;;;11.30;8.60;;;;;;;13.42;56.18;100358.71;108607;1273;23025;-82
2022/09/24 08:59:35;;;;;;;12.50;9.30;;;;;;;13.44;55.86;100359.02;108666;1273;23856;-82
2022/09/24 09:03:05;;;;;;;12.40;9.70;;;;;;;13.43;56.03;100357.81;108694;1273;22000;-81
2022/09/24 09:06:03;;;;;;;13.90;10.50;;;;;;;13.44;56.08;100352.86;108470;1280;22028;-82
2022/09/24 09:09:13;;;;;;;11.80;10.50;;;;;;;13.46;56.11;100354.87;108336;1282;22343;-82
2022/09/24 09:12:07;;;;;;;10.80;9.50;;;;;;;13.52;56.28;100353.68;108149;1286;23073;-84
2022/09/24 09:14:53;;;;;;;10.80;9.30;;;;;;;13.58;55.96;100345.91;107875;1288;21975;-82
2022/09/24 09:17:48;;;;;;;12.50;9.50;;;;;;;13.67;56.02;100344.04;107976;1285;23713;-82
2022/09/24 09:20:42;;;;;;;10.70;9.20;;;;;;;13.86;55.97;100337.99;108146;1286;23826;-82
2022/09/24 09:23:32;;;;;;;13.50;9.50;;;;;;;14.17;56.05;100339.34;108211;1286;22498;-82
2022/09/24 09:26:05;;;;;;;12.10;9.00;;;;;;;14.67;55.97;100337.21;107824;1288;22685;-82
2022/09/24 09:28:39;;;;;;;9.70;8.50;;;;;;;15.15;55.17;100332.08;107831;1289;22083;-81
2022/09/24 09:32:18;;;;;;;10.70;9.50;;;;;;;15.55;54.13;100329.41;107848;1288;22457;-82
2022/09/24 09:35:32;;;;;;;12.80;10.20;;;;;;;15.78;52.32;100324.06;106754;1299;22020;-81
2022/09/24 09:38:59;;;;;;;10.40;9.00;;;;;;;15.90;52.06;100326.17;106506;1302;22637;-82
2022/09/24 09:41:45;;;;;;;11.60;8.20;;;;;;;16.07;51.03;100325.34;106845;1298;23725;-82
2022/09/24 09:44:32;;;;;;;11.00;7.80;;;;;;;16.14;50.35;100323.47;106657;1299;22163;-82
2022/09/24 09:47:42;;;;;;;9.40;7.40;;;;;;;16.13;49.80;100326.69;107095;1296;22046;-81
2022/09/24 09:50:35;;;;;;;10.10;7.20;;;;;;;16.13;50.03;100324.91;107458;1292;23851;-81
2022/09/24 09:53:30;;;;;;;10.60;8.00;;;;;;;16.24;50.60;100323.36;107487;1290;23880;-82
2022/09/24 09:56:09;;;;;;;10.90;9.50;;;;;;;16.27;49.75;100320.76;107356;1293;23703;-82
2022/09/24 09:58:52;;;;;;;11.20;9.00;;;;;;;16.22;49.53;100322.98;107427;1286;22098;-81
2022/09/24 10:01:33;;;;;;;10.00;8.50;;;;;;;16.16;49.40;100326.48;107636;1289;22012;-81
2022/09/24 10:04:04;;;;;;;11.00;8.60;;;;;;;16.11;49.43;100325.42;108423;1282;24330;-82
2022/09/24 10:06:35;;;;;;;10.60;6.90;;;;;;;16.07;49.53;100326.88;108574;1273;22008;-81
2022/09/24 10:09:17;;;;;;;11.40;8.00;;;;;;;15.95;49.21;100323.59;108743;1273;21994;-83
2022/09/24 10:11:49;;;;;;;8.80;7.40;;;;;;;15.88;49.46;100324.18;108707;1276;22336;-81
2022/09/24 10:14:20;;;;;;;11.60;7.70;;;;;;;15.81;49.20;100325.83;108704;1273;22022;-83
2022/09/24 10:16:54;;;;;;;9.30;7.50;;;;;;;15.70;49.24;100326.79;108722;1273;22016;-82
2022/09/24 10:19:27;;;;;;;10.90;7.40;;;;;;;15.52;49.21;100331.73;108835;1273;23779;-81
2022/09/24 10:22:05;;;;;;;8.40;7.30;;;;;;;15.39;49.58;100328.42;106040;1276;3632585;-84
2022/09/24 10:24:54;;;;;;;;;;;;;;;;;;;;;
2022/09/24 10:27:36;;;;;;;10.80;8.10;;;;;;;15.32;50.15;100329.04;108717;1275;22006;-84
2022/09/24 10:30:33;;;;;;;10.90;8.60;;;;;;;15.35;50.38;100327.21;108583;1273;21994;-81
2022/09/24 10:33:07;;;;;;;9.40;7.40;;;;;;;15.32;50.21;100328.86;108644;1275;22004;-82
2022/09/24 10:36:04;;;;;;;8.90;7.70;;;;;;;15.28;50.22;100325.39;108751;1273;21985;-83
2022/09/24 10:38:36;;;;;;;37.70;11.40;;;;;;;15.29;50.44;100325.85;108653;1273;21995;-82
2022/09/24 10:41:27;;;;;;;15.70;8.80;;;;;;;15.29;50.78;100324.96;108806;1273;22099;-81
2022/09/24 10:44:15;;;;;;;9.90;7.90;;;;;;;15.33;51.05;100320.87;108456;1280;22031;-82
2022/09/24 10:47:23;;;;;;;10.30;7.80;;;;;;;15.40;50.83;100319.98;108524;1278;22097;-82
2022/09/24 10:50:41;;;;;;;9.40;8.40;;;;;;;15.42;50.64;100319.45;108512;1279;24229;-84
2022/09/24 10:54:01;;;;;;;9.90;8.90;;;;;;;15.36;50.34;100313.52;108613;1279;23945;-84
2022/09/24 10:57:02;;;;;;;12.40;8.70;;;;;;;15.49;50.95;100304.70;108520;1279;23708;-86
2022/09/24 11:00:28;;;;;;;23.70;11.40;;;;;;;15.80;51.53;100302.71;108210;1282;23126;-81
2022/09/24 11:03:28;;;;;;;11.50;8.60;;;;;;;16.18;51.24;100303.74;107410;1290;22025;-80
2022/09/24 11:06:56;;;;;;;12.50;8.30;;;;;;;16.51;50.82;100300.96;107719;1289;23720;-86
2022/09/24 11:10:01;;;;;;;19.60;8.30;;;;;;;16.81;49.84;100297.00;107473;1291;22814;-84
2022/09/24 11:13:30;;;;;;;14.00;8.30;;;;;;;17.03;48.98;100298.36;106654;1299;22664;-84
2022/09/24 11:17:22;;;;;;;10.90;8.00;;;;;;;16.95;48.23;100295.73;106693;1300;22112;-86
2022/09/24 11:20:32;;;;;;;17.50;8.40;;;;;;;16.84;48.30;100293.42;106295;1305;22042;-82
2022/09/24 11:23:44;;;;;;;;;;;;;;;;;;;;;
2022/09/24 11:26:56;;;;;;;35.70;10.80;;;;;;;16.90;48.40;100291.30;106172;1306;22032;-83
2022/09/24 11:29:30;;;;;;;15.60;9.60;;;;;;;16.95;48.59;100291.86;106332;1300;22018;-82
2022/09/24 11:32:47;;;;;;;13.20;9.00;;;;;;;17.00;48.22;100289.27;106624;1299;22118;-79
2022/09/24 11:36:27;;;;;;;10.40;8.90;;;;;;;17.02;48.19;100290.16;105903;1303;22865;-78
2022/09/24 11:39:52;;;;;;;11.60;8.40;;;;;;;17.05;48.04;100287.34;105869;1302;23768;-78
2022/09/24 11:42:48;;;;;;;13.50;9.70;;;;;;;17.12;48.25;100290.55;105602;1308;23766;-79
2022/09/24 11:46:01;;;;;;;8.30;7.50;;;;;;;17.25;48.10;100292.01;105467;1302;23121;-78
2022/09/24 11:49:04;;;;;;;11.10;7.50;;;;;;;17.25;47.55;100288.86;105872;1302;23736;-78
2022/09/24 11:51:36;;;;;;;14.80;9.40;;;;;;;17.27;47.90;100288.35;107058;1293;22114;-79
2022/09/24 11:54:53;;;;;;;13.90;9.30;;;;;;;17.32;47.99;100284.69;107550;1289;22460;-78
2022/09/24 11:57:38;;;;;;;9.20;7.20;;;;;;;17.41;47.95;100277.55;107253;1292;22034;-78
2022/09/24 12:00:16;;;;;;;8.40;6.90;;;;;;;17.55;47.83;100282.58;106909;1292;22018;-79
2022/09/24 12:02:56;;;;;;;11.70;7.90;;;;;;;17.56;46.95;100282.72;106596;1296;22037;-78
2022/09/24 12:06:11;;;;;;;9.30;6.50;;;;;;;17.47;46.53;100280.14;106624;1296;23033;-78
2022/09/24 12:09:50;;;;;;;11.90;6.90;;;;;;;17.42;46.78;100278.51;106429;1299;22026;-78
2022/09/24 12:12:33;;;;;;;7.90;6.60;;;;;;;17.43;46.38;100275.84;105697;1305;23805;-77
2022/09/24 12:15:28;;;;;;;9.40;7.90;;;;;;;17.43;46.41;100275.48;105822;1299;23153;-77
2022/09/24 12:18:49;;;;;;;10.40;6.40;;;;;;;17.39;46.04;100272.58;106296;1299;22445;-78
2022/09/24 12:21:31;;;;;;;6.00;5.40;;;;;;;17.42;46.18;100270.46;106949;1295;21997;-77
2022/09/24 12:24:36;;;;;;;6.20;4.40;;;;;;;17.48;46.03;100268.96;106894;1295;23745;-77
2022/09/24 12:27:33;;;;;;;;;;;;;;;17.55;45.84;100273.27;107290;1286;22016;-78
2022/09/24 12:34:27;;;;;;;5.20;4.30;;;;;;;17.58;45.10;100270.98;107470;1285;23172;-78
2022/09/24 12:37:15;;;;;;;5.70;4.70;;;;;;;17.68;45.05;100266.42;107959;1284;23759;-78
2022/09/24 12:40:02;;;;;;;5.00;3.80;;;;;;;17.80;44.65;100263.14;107871;1285;22018;-79
2022/09/24 12:42:41;;;;;;;5.00;3.40;;;;;;;17.82;43.85;100261.58;107874;1284;23627;-77
2022/09/24 12:45:21;;;;;;;4.10;3.60;;;;;;;17.82;43.53;100258.04;107676;1285;22147;-79
2022/09/24 12:48:00;;;;;;;4.30;3.50;;;;;;;17.85;43.25;100254.67;107796;1283;24067;-78
2022/09/24 12:50:39;;;;;;;6.20;3.60;;;;;;;17.91;43.26;100253.38;108372;1277;23110;-77
2022/09/24 12:53:26;;;;;;;6.80;3.60;;;;;;;18.05;43.01;100251.77;108547;1273;22275;-78
2022/09/24 12:56:01;;;;;;;5.00;3.50;;;;;;;18.02;42.16;100248.40;108456;1273;23798;-77
2022/09/24 12:58:40;;;;;;;6.30;3.20;;;;;;;18.03;41.96;100245.34;108449;1273;22012;-77
2022/09/24 13:01:34;;;;;;;5.30;3.10;;;;;;;18.10;41.69;100239.92;108555;1272;21961;-77
2022/09/24 13:04:24;;;;;;;6.60;3.90;;;;;;;18.12;41.12;100233.97;108169;1279;22001;-78